createdAt,value
2022-09-28T00:01:21.999Z,0.55
2022-09-28T00:03:54.490Z,0.52
2022-09-28T00:06:28.437Z,0.63
2022-09-28T00:08:58.457Z,1.08
2022-09-28T00:11:29.171Z,0.93
2022-09-28T00:14:03.619Z,0.60
2022-09-28T00:16:34.955Z,0.60
2022-09-28T00:19:03.258Z,0.43
2022-09-28T00:21:33.534Z,0.70
2022-09-28T00:24:22.958Z,0.35
2022-09-28T00:26:58.358Z,0.57
2022-09-28T00:29:36.133Z,0.75
2022-09-28T00:32:13.712Z,0.70
2022-09-28T00:34:45.895Z,0.63
2022-09-28T00:37:14.514Z,0.60
2022-09-28T00:39:41.679Z,0.40
2022-09-28T00:42:22.859Z,0.60
2022-09-28T00:44:57.785Z,0.70
2022-09-28T00:47:51.972Z,0.43
2022-09-28T00:50:28.073Z,0.60
2022-09-28T00:53:13.134Z,0.45
2022-09-28T00:55:40.069Z,0.57
2022-09-28T00:58:11.746Z,0.80
2022-09-28T01:03:09.588Z,0.40
2022-09-28T01:05:40.882Z,0.60
2022-09-28T01:08:09.064Z,0.63
2022-09-28T01:10:36.012Z,0.57
2022-09-28T01:13:02.956Z,0.70
2022-09-28T01:15:35.286Z,0.63
2022-09-28T01:18:04.752Z,0.70
2022-09-28T01:21:13.135Z,0.60
2022-09-28T01:23:48.900Z,0.80
2022-09-28T01:26:54.310Z,0.75
2022-09-28T01:29:48.583Z,0.77
2022-09-28T01:32:54.593Z,0.90
2022-09-28T01:35:27.210Z,0.55
2022-09-28T01:38:29.334Z,0.77
2022-09-28T01:40:58.577Z,0.68
2022-09-28T01:43:30.763Z,0.55
2022-09-28T01:46:19.533Z,0.57
2022-09-28T01:48:59.201Z,0.57
2022-09-28T01:51:35.952Z,0.57
2022-09-28T01:54:20.115Z,0.57
2022-09-28T01:57:28.447Z,0.55
2022-09-28T02:00:16.209Z,0.47
2022-09-28T02:02:48.923Z,0.60
2022-09-28T02:05:39.141Z,1.48
2022-09-28T02:08:09.224Z,0.70
2022-09-28T02:10:44.509Z,0.50
2022-09-28T02:13:16.552Z,0.68
2022-09-28T02:15:57.164Z,0.70
2022-09-28T02:18:24.699Z,0.77
2022-09-28T02:21:12.789Z,0.65
2022-09-28T02:23:49.912Z,0.75
2022-09-28T02:26:23.264Z,0.77
2022-09-28T02:28:50.310Z,0.70
2022-09-28T02:31:17.279Z,0.70
2022-09-28T02:33:45.174Z,0.50
2022-09-28T02:36:12.450Z,0.60
2022-09-28T02:38:39.869Z,0.45
2022-09-28T02:41:33.846Z,0.60
2022-09-28T02:44:03.617Z,0.47
2022-09-28T02:47:04.703Z,0.50
2022-09-28T02:50:36.671Z,0.50
2022-09-28T02:53:26.238Z,0.55
2022-09-28T02:56:27.077Z,0.40
2022-09-28T02:59:20.390Z,0.45
2022-09-28T03:02:11.902Z,0.30
2022-09-28T03:04:56.547Z,0.50
2022-09-28T03:07:41.680Z,0.40
2022-09-28T03:10:45.890Z,0.47
2022-09-28T03:13:14.627Z,0.50
2022-09-28T03:15:46.442Z,0.60
2022-09-28T03:18:15.503Z,0.40
2022-09-28T03:20:45.036Z,0.35
2022-09-28T03:23:24.320Z,0.40
2022-09-28T03:25:52.238Z,0.50
2022-09-28T03:28:19.568Z,0.50
2022-09-28T03:30:46.455Z,0.40
2022-09-28T03:33:13.430Z,0.57
2022-09-28T03:35:42.869Z,0.57
2022-09-28T03:38:11.852Z,0.40
2022-09-28T03:40:38.927Z,0.43
2022-09-28T03:43:05.933Z,0.35
2022-09-28T03:45:35.246Z,0.70
2022-09-28T03:48:04.789Z,0.40
2022-09-28T03:50:31.657Z,0.30
2022-09-28T03:53:03.371Z,0.20
2022-09-28T03:55:30.506Z,0.40
2022-09-28T03:57:57.446Z,0.35
2022-09-28T04:00:24.457Z,0.40
2022-09-28T04:02:51.345Z,0.28
2022-09-28T04:05:18.306Z,0.30
2022-09-28T04:07:45.132Z,0.30
2022-09-28T04:10:11.965Z,0.40
2022-09-28T04:12:39.013Z,0.40
2022-09-28T04:15:06.668Z,0.40
2022-09-28T04:17:39.170Z,0.50
2022-09-28T04:20:07.673Z,0.20
2022-09-28T04:22:34.688Z,0.30
2022-09-28T04:25:01.684Z,0.55
2022-09-28T04:27:47.629Z,0.35
2022-09-28T04:30:17.017Z,0.40
2022-09-28T04:32:46.648Z,0.30
2022-09-28T04:35:14.008Z,0.40
2022-09-28T04:37:43.395Z,0.32
2022-09-28T04:40:10.951Z,0.30
2022-09-28T04:42:37.885Z,0.30
2022-09-28T04:45:05.516Z,0.50
2022-09-28T04:47:32.488Z,0.43
2022-09-28T04:49:59.462Z,0.35
2022-09-28T04:52:29.399Z,0.30
2022-09-28T04:54:58.773Z,0.32
2022-09-28T04:57:25.713Z,0.30
2022-09-28T04:59:55.619Z,0.30
2022-09-28T05:02:22.654Z,0.30
2022-09-28T05:04:51.667Z,0.40
2022-09-28T05:07:23.834Z,0.30
2022-09-28T05:09:55.945Z,0.30
2022-09-28T05:12:23.739Z,0.40
2022-09-28T05:14:50.581Z,0.40
2022-09-28T05:17:17.477Z,0.45
2022-09-28T05:19:47.314Z,0.60
2022-09-28T05:22:15.071Z,0.70
2022-09-28T05:24:42.682Z,0.60
2022-09-28T05:27:12.108Z,0.50
2022-09-28T05:29:38.957Z,0.40
2022-09-28T05:32:05.945Z,0.30
2022-09-28T05:34:35.280Z,0.45
2022-09-28T05:37:02.127Z,0.68
2022-09-28T05:39:28.985Z,0.55
2022-09-28T05:41:57.837Z,0.38
2022-09-28T05:44:26.787Z,0.60
2022-09-28T05:46:56.188Z,0.55
2022-09-28T05:49:23.110Z,0.60
2022-09-28T05:51:49.963Z,0.40
2022-09-28T05:54:17.040Z,0.63
2022-09-28T05:56:46.183Z,0.57
2022-09-28T05:59:15.628Z,0.40
2022-09-28T06:01:45.049Z,0.22
2022-09-28T06:04:27.537Z,0.40
2022-09-28T06:06:56.364Z,0.40
2022-09-28T06:09:32.758Z,0.20
2022-09-28T06:12:29.235Z,0.22
2022-09-28T06:18:47.532Z,0.30
2022-09-28T06:21:17.655Z,0.40
2022-09-28T06:24:18.546Z,0.40
2022-09-28T06:26:45.611Z,0.40
2022-09-28T06:29:43.607Z,0.32
2022-09-28T06:32:31.125Z,0.40
2022-09-28T06:34:58.239Z,0.38
2022-09-28T06:37:33.434Z,0.30
2022-09-28T06:40:02.863Z,0.43
2022-09-28T06:42:35.998Z,0.60
2022-09-28T06:45:55.407Z,0.70
2022-09-28T06:48:27.684Z,0.50
2022-09-28T06:51:07.512Z,0.50
2022-09-28T06:53:34.695Z,0.50
2022-09-28T06:56:07.407Z,0.65
2022-09-28T06:58:53.122Z,0.65
2022-09-28T07:01:26.375Z,0.40
2022-09-28T07:17:11.236Z,0.40
2022-09-28T07:24:28.257Z,0.38
2022-09-28T07:31:06.690Z,0.17
2022-09-28T07:33:33.795Z,0.20
2022-09-28T07:36:20.826Z,0.40
2022-09-28T07:38:49.926Z,0.28
2022-09-28T07:41:22.517Z,7.82
2022-09-28T07:43:49.853Z,2.00
2022-09-28T07:46:17.608Z,2.45
2022-09-28T07:48:47.207Z,1.13
2022-09-28T07:51:14.170Z,0.80
2022-09-28T07:53:41.070Z,0.80
2022-09-28T07:56:12.010Z,0.60
2022-09-28T07:58:43.827Z,0.60
2022-09-28T08:01:12.961Z,0.60
2022-09-28T08:03:48.010Z,0.60
2022-09-28T08:06:18.749Z,0.40
2022-09-28T08:08:49.296Z,0.40
2022-09-28T08:11:20.390Z,0.47
2022-09-28T08:13:47.379Z,0.20
2022-09-28T08:16:16.418Z,0.28
2022-09-28T08:18:45.811Z,0.45
2022-09-28T08:21:31.009Z,0.55
2022-09-28T08:23:57.949Z,0.30
2022-09-28T08:26:29.514Z,0.35
2022-09-28T08:31:25.653Z,0.60
2022-09-28T08:33:54.327Z,0.28
2022-09-28T08:36:25.768Z,0.47
2022-09-28T08:38:55.475Z,0.50
2022-09-28T08:42:20.951Z,0.60
2022-09-28T08:44:57.907Z,0.40
2022-09-28T08:48:12.076Z,0.60
2022-09-28T08:51:08.572Z,0.50
2022-09-28T08:53:48.117Z,0.52
2022-09-28T08:56:32.290Z,0.60
2022-09-28T08:59:04.584Z,0.60
2022-09-28T09:01:43.588Z,0.45
2022-09-28T09:04:10.681Z,0.70
2022-09-28T09:07:19.610Z,0.47
2022-09-28T09:10:03.858Z,1.20
2022-09-28T09:15:47.095Z,0.57
2022-09-28T09:18:44.060Z,0.50
2022-09-28T09:21:47.131Z,0.60
2022-09-28T09:24:43.103Z,0.60
2022-09-28T09:27:33.596Z,0.63
2022-09-28T09:30:12.565Z,0.70
2022-09-28T09:33:10.214Z,0.43
2022-09-28T09:36:06.805Z,0.50
2022-09-28T09:38:44.521Z,0.50
2022-09-28T09:41:21.121Z,0.70
2022-09-28T09:44:05.666Z,0.70
2022-09-28T09:47:08.199Z,0.68
2022-09-28T09:49:50.218Z,0.73
2022-09-28T09:52:55.248Z,0.77
2022-09-28T09:55:40.605Z,0.60
2022-09-28T09:58:33.240Z,0.70
2022-09-28T10:01:11.045Z,0.70
2022-09-28T10:03:46.205Z,0.60
2022-09-28T10:06:33.963Z,0.70
2022-09-28T10:09:11.513Z,0.60
2022-09-28T10:11:51.921Z,0.80
2022-09-28T10:14:24.158Z,1.02
2022-09-28T10:16:53.888Z,0.70
2022-09-28T10:19:30.911Z,0.65
2022-09-28T10:21:59.988Z,0.50
2022-09-28T10:24:41.359Z,0.43
2022-09-28T10:27:16.080Z,1.00
2022-09-28T10:30:23.696Z,0.32
2022-09-28T10:32:59.125Z,0.40
2022-09-28T10:35:33.323Z,0.50
2022-09-28T10:38:06.815Z,1.00
2022-09-28T10:41:00.887Z,1.10
2022-09-28T10:44:11.074Z,0.88
2022-09-28T10:46:39.472Z,0.90
2022-09-28T10:49:20.117Z,0.50
2022-09-28T10:51:56.885Z,0.60
2022-09-28T10:54:31.096Z,1.10
2022-09-28T10:57:00.093Z,0.80
2022-09-28T10:59:29.949Z,1.00
2022-09-28T11:02:06.837Z,1.02
2022-09-28T11:04:41.850Z,0.70
2022-09-28T11:07:32.146Z,0.80
2022-09-28T11:10:04.136Z,0.93
2022-09-28T11:12:43.203Z,0.68
2022-09-28T11:15:26.212Z,0.80
2022-09-28T11:17:55.269Z,0.75
2022-09-28T11:20:28.472Z,0.70
2022-09-28T11:23:29.427Z,0.90
2022-09-28T11:26:01.353Z,1.20
2022-09-28T11:28:37.827Z,0.93
2022-09-28T11:31:07.841Z,0.80
2022-09-28T11:33:45.506Z,1.20
2022-09-28T11:36:16.592Z,0.85
2022-09-28T11:39:05.237Z,1.00
2022-09-28T11:42:03.396Z,0.98
2022-09-28T11:44:48.828Z,0.95
2022-09-28T11:47:47.506Z,0.50
2022-09-28T11:50:26.294Z,0.90
2022-09-28T11:53:33.167Z,0.93
2022-09-28T11:56:32.017Z,0.80
2022-09-28T11:59:18.332Z,1.20
2022-09-28T12:02:43.619Z,0.98
2022-09-28T12:09:46.861Z,1.00
2022-09-28T12:12:43.906Z,1.00
2022-09-28T12:15:59.326Z,1.20
2022-09-28T12:19:39.321Z,0.70
2022-09-28T12:23:01.321Z,0.70
2022-09-28T12:26:00.047Z,1.17
2022-09-28T12:29:25.953Z,1.00
2022-09-28T12:32:20.610Z,0.50
2022-09-28T12:34:52.765Z,0.40
2022-09-28T12:38:22.256Z,0.60
2022-09-28T12:40:58.250Z,0.52
2022-09-28T12:44:08.955Z,0.38
2022-09-28T12:47:38.891Z,0.60
2022-09-28T12:59:01.281Z,0.70
2022-09-28T13:05:46.053Z,0.50
2022-09-28T13:08:47.070Z,0.60
2022-09-28T13:11:26.991Z,0.60
2022-09-28T13:30:00.072Z,1.10
2022-09-28T13:48:24.745Z,1.20
2022-09-28T13:51:58.166Z,1.40
2022-09-28T13:55:00.137Z,2.38
2022-09-28T14:00:53.017Z,1.42
2022-09-28T14:03:25.561Z,1.35
2022-09-28T14:06:20.184Z,1.50
2022-09-28T14:09:17.297Z,2.88
2022-09-28T14:16:58.592Z,1.20
2022-09-28T14:19:44.779Z,0.90
2022-09-28T14:35:28.492Z,0.73
2022-09-28T14:50:30.158Z,1.67
2022-09-28T14:57:27.639Z,1.80
2022-09-28T14:59:58.585Z,1.60
2022-09-28T15:02:55.014Z,1.10
2022-09-28T15:06:51.921Z,1.40
2022-09-28T15:08:49.940Z,0.90
2022-09-28T15:14:21.459Z,1.00
2022-09-28T15:20:29.308Z,1.20
2022-09-28T15:22:59.059Z,1.15
2022-09-28T15:25:35.164Z,0.82
2022-09-28T15:28:25.738Z,1.35
2022-09-28T15:31:11.147Z,1.70
2022-09-28T15:34:00.354Z,1.63
2022-09-28T15:36:33.591Z,2.30
2022-09-28T15:39:40.648Z,2.50
2022-09-28T15:42:07.857Z,4.18
2022-09-28T15:44:38.302Z,3.88
2022-09-28T15:47:07.779Z,3.22
2022-09-28T15:50:00.928Z,2.67
2022-09-28T15:52:42.540Z,2.85
2022-09-28T15:55:34.745Z,2.17
2022-09-28T15:58:22.862Z,1.95
2022-09-28T16:01:27.156Z,1.95
2022-09-28T16:03:57.483Z,2.10
2022-09-28T16:06:24.657Z,1.85
2022-09-28T16:09:00.602Z,3.20
2022-09-28T16:11:47.453Z,2.45
2022-09-28T16:14:24.318Z,2.13
2022-09-28T16:16:55.195Z,1.77
2022-09-28T16:19:39.051Z,1.40
2022-09-28T16:22:26.754Z,1.23
2022-09-28T16:25:00.850Z,1.58
2022-09-28T16:27:43.111Z,1.50
2022-09-28T16:30:29.718Z,1.20
2022-09-28T16:33:01.341Z,1.30
2022-09-28T16:38:18.865Z,1.00
2022-09-28T16:40:55.323Z,1.52
2022-09-28T16:43:30.146Z,1.40
2022-09-28T16:46:04.382Z,2.65
2022-09-28T16:48:34.989Z,3.63
2022-09-28T16:51:01.873Z,9.15
2022-09-28T16:53:47.657Z,5.00
2022-09-28T16:56:14.563Z,3.47
2022-09-28T16:58:42.452Z,2.30
2022-09-28T17:04:02.841Z,2.10
2022-09-28T17:06:32.815Z,4.25
2022-09-28T17:09:03.101Z,4.25
2022-09-28T17:11:40.447Z,3.60
2022-09-28T17:14:08.858Z,3.53
2022-09-28T17:19:32.135Z,2.53
2022-09-28T17:21:59.250Z,2.30
2022-09-28T17:24:35.959Z,2.10
2022-09-28T17:27:18.141Z,2.10
2022-09-28T17:29:58.164Z,2.42
2022-09-28T17:32:25.026Z,2.08
2022-09-28T17:35:06.506Z,1.90
2022-09-28T17:40:13.039Z,1.80
2022-09-28T17:42:44.477Z,1.63
2022-09-28T17:45:15.805Z,1.30
2022-09-28T17:47:46.347Z,1.90
2022-09-28T17:50:30.333Z,2.00
2022-09-28T17:53:02.770Z,1.80
2022-09-28T17:55:35.975Z,2.00
2022-09-28T17:58:16.980Z,2.10
2022-09-28T18:00:48.510Z,2.40
2022-09-28T18:05:59.161Z,1.80
2022-09-28T18:08:26.023Z,1.98
2022-09-28T18:10:57.596Z,2.08
2022-09-28T18:15:53.204Z,1.42
2022-09-28T18:18:22.042Z,1.48
2022-09-28T18:20:51.868Z,1.50
2022-09-28T18:23:20.992Z,1.42
2022-09-28T18:25:50.253Z,1.67
2022-09-28T18:28:19.366Z,1.30
2022-09-28T18:30:46.443Z,1.30
2022-09-28T18:33:17.129Z,1.17
2022-09-28T18:35:54.784Z,1.55
2022-09-28T18:38:24.212Z,1.55
2022-09-28T18:40:51.328Z,1.30
2022-09-28T18:43:18.337Z,1.20
2022-09-28T18:45:45.341Z,1.85
2022-09-28T18:48:15.158Z,7.00
2022-09-28T18:50:47.155Z,3.00
2022-09-28T18:53:23.217Z,2.70
2022-09-28T18:55:50.390Z,3.45
2022-09-28T18:58:19.612Z,4.40
2022-09-28T19:00:46.485Z,3.83
2022-09-28T19:03:14.348Z,3.42
2022-09-28T19:05:43.036Z,3.25
2022-09-28T19:08:10.328Z,2.60
2022-09-28T19:10:37.219Z,2.65
2022-09-28T19:13:04.061Z,2.10
2022-09-28T19:15:34.586Z,2.08
2022-09-28T19:18:01.620Z,2.03
2022-09-28T19:20:28.591Z,1.40
2022-09-28T19:22:59.162Z,1.27
2022-09-28T19:25:30.952Z,1.25
2022-09-28T19:27:59.999Z,1.27
2022-09-28T19:30:29.210Z,0.93
2022-09-28T19:32:58.474Z,1.40
2022-09-28T19:35:25.333Z,1.02
2022-09-28T19:37:52.241Z,1.05
2022-09-28T19:40:19.192Z,1.05
2022-09-28T19:42:46.034Z,1.15
2022-09-28T19:45:12.964Z,1.30
2022-09-28T19:47:42.306Z,1.20
2022-09-28T19:50:10.227Z,1.15
2022-09-28T19:52:37.019Z,0.98
2022-09-28T19:55:04.208Z,1.25
2022-09-28T19:57:34.843Z,1.45
2022-09-28T20:00:03.600Z,1.52
2022-09-28T20:02:30.876Z,1.40
2022-09-28T20:05:02.586Z,1.20
2022-09-28T20:09:59.735Z,1.77
2022-09-28T20:12:29.103Z,1.63
2022-09-28T20:14:55.934Z,1.48
2022-09-28T20:17:22.739Z,1.30
2022-09-28T20:19:51.732Z,1.30
2022-09-28T20:22:21.230Z,1.00
2022-09-28T20:24:48.166Z,0.93
2022-09-28T20:27:17.454Z,1.23
2022-09-28T20:29:44.301Z,1.00
2022-09-28T20:32:11.605Z,0.98
2022-09-28T20:34:38.946Z,1.10
2022-09-28T20:37:05.858Z,1.00
2022-09-28T20:39:32.677Z,1.10
2022-09-28T20:42:02.830Z,1.20
2022-09-28T20:44:29.647Z,1.80
2022-09-28T20:46:57.077Z,1.70
2022-09-28T20:49:28.026Z,1.50
2022-09-28T20:51:57.194Z,1.63
2022-09-28T20:54:24.151Z,1.88
2022-09-28T20:56:51.318Z,1.75
2022-09-28T20:59:22.847Z,1.50
2022-09-28T21:01:49.815Z,1.50
2022-09-28T21:04:19.436Z,1.23
2022-09-28T21:06:46.984Z,1.40
2022-09-28T21:09:13.786Z,1.30
2022-09-28T21:11:41.486Z,1.45
2022-09-28T21:14:10.238Z,1.30
2022-09-28T21:16:38.449Z,1.75
2022-09-28T21:19:07.797Z,2.50
2022-09-28T21:21:34.760Z,2.00
2022-09-28T21:24:02.126Z,2.08
2022-09-28T21:26:32.782Z,2.10
2022-09-28T21:29:04.600Z,1.50
2022-09-28T21:31:38.676Z,1.10
2022-09-28T21:34:05.980Z,1.10
2022-09-28T21:36:33.364Z,2.08
2022-09-28T21:39:03.423Z,1.30
2022-09-28T21:44:01.025Z,0.95
2022-09-28T21:46:33.951Z,1.20
2022-09-28T21:49:04.318Z,1.10
2022-09-28T21:51:33.741Z,1.08
2022-09-28T21:54:00.681Z,1.27
2022-09-28T21:56:29.808Z,1.30
2022-09-28T21:58:56.713Z,1.30
2022-09-28T22:01:27.685Z,0.88
2022-09-28T22:03:56.810Z,0.95
2022-09-28T22:06:28.020Z,1.20
2022-09-28T22:08:55.784Z,1.15
2022-09-28T22:11:31.371Z,1.17
2022-09-28T22:14:00.017Z,1.23
2022-09-28T22:16:31.450Z,1.30
2022-09-28T22:19:00.471Z,1.20
2022-09-28T22:21:31.963Z,1.40
2022-09-28T22:24:03.857Z,1.25
2022-09-28T22:26:33.554Z,1.10
2022-09-28T22:29:09.634Z,1.25
2022-09-28T22:31:39.874Z,1.20
2022-09-28T22:34:08.050Z,1.02
2022-09-28T22:36:35.554Z,1.42
2022-09-28T22:39:02.660Z,1.70
2022-09-28T22:41:32.445Z,1.50
2022-09-28T22:43:59.857Z,1.80
2022-09-28T22:46:32.143Z,2.63
2022-09-28T22:49:02.485Z,1.80
2022-09-28T22:51:30.907Z,2.53
2022-09-28T22:53:58.387Z,3.75
2022-09-28T22:56:25.623Z,2.45
2022-09-28T22:58:55.093Z,1.80
2022-09-28T23:01:28.983Z,2.17
2022-09-28T23:03:57.652Z,1.60
2022-09-28T23:06:30.707Z,1.80
2022-09-28T23:08:57.655Z,2.17
2022-09-28T23:11:28.206Z,1.60
2022-09-28T23:13:58.011Z,1.98
2022-09-28T23:16:26.626Z,1.90
2022-09-28T23:18:57.142Z,2.17
2022-09-28T23:21:26.624Z,2.10
2022-09-28T23:24:02.155Z,2.35
2022-09-28T23:26:37.003Z,1.90
2022-09-28T23:29:04.166Z,2.00
2022-09-28T23:31:33.123Z,2.10
2022-09-28T23:34:02.130Z,1.65
2022-09-28T23:36:29.668Z,1.52
2022-09-28T23:39:00.174Z,2.00
2022-09-28T23:41:27.215Z,1.35
2022-09-28T23:43:54.148Z,1.50
2022-09-28T23:46:21.479Z,1.20
2022-09-28T23:48:51.661Z,1.30
2022-09-28T23:51:21.585Z,1.27
2022-09-28T23:53:48.447Z,1.60
2022-09-28T23:56:19.776Z,1.17
2022-09-28T23:58:46.638Z,1.15
